createdAt,value
2022-12-22T00:01:29.662Z,96804.00
2022-12-22T00:04:45.244Z,96823.59
2022-12-22T00:08:07.058Z,96809.94
2022-12-22T00:11:31.913Z,96802.06
2022-12-22T00:18:22.912Z,96788.81
2022-12-22T00:21:44.374Z,96788.94
2022-12-22T00:25:17.149Z,96781.75
2022-12-22T00:28:32.974Z,96795.25
2022-12-22T00:31:45.382Z,96782.56
2022-12-22T00:35:27.088Z,96785.75
2022-12-22T00:38:53.715Z,96775.81
2022-12-22T00:46:01.897Z,96761.56
2022-12-22T00:49:19.461Z,96762.41
2022-12-22T00:52:30.388Z,96766.53
2022-12-22T00:56:02.905Z,96774.41
2022-12-22T00:59:18.895Z,96754.81
2022-12-22T01:02:45.970Z,96762.13
2022-12-22T01:05:58.418Z,96752.72
2022-12-22T01:09:42.719Z,96739.91
2022-12-22T01:13:10.864Z,96749.53
2022-12-22T01:16:17.932Z,96733.41
2022-12-22T01:19:29.230Z,96725.53
2022-12-22T01:22:52.468Z,96724.53
2022-12-22T01:26:09.314Z,96737.22
2022-12-22T01:29:17.737Z,96738.22
2022-12-22T01:32:37.892Z,96718.06
2022-12-22T01:35:50.181Z,96736.84
2022-12-22T01:39:02.963Z,96740.44
2022-12-22T01:42:40.324Z,96726.63
2022-12-22T01:45:49.616Z,96735.75
2022-12-22T01:48:55.352Z,96713.88
2022-12-22T01:52:10.137Z,96697.75
2022-12-22T01:55:23.546Z,96702.72
2022-12-22T01:58:46.966Z,96696.78
2022-12-22T02:02:01.292Z,96701.91
2022-12-22T02:05:19.334Z,96709.34
2022-12-22T02:08:47.758Z,96691.13
2022-12-22T02:12:19.954Z,96663.94
2022-12-22T02:15:53.155Z,96669.88
2022-12-22T02:19:07.390Z,96692.59
2022-12-22T02:22:23.632Z,96685.72
2022-12-22T02:25:46.948Z,96680.91
2022-12-22T02:28:53.492Z,96674.38
2022-12-22T02:32:07.172Z,96675.50
2022-12-22T02:35:17.078Z,96678.81
2022-12-22T02:38:50.921Z,96673.56
2022-12-22T02:42:46.042Z,96669.44
2022-12-22T02:46:43.067Z,96679.34
2022-12-22T02:50:03.539Z,96661.72
2022-12-22T02:53:18.224Z,96667.78
2022-12-22T02:56:27.537Z,96665.28
2022-12-22T02:59:36.656Z,96666.13
2022-12-22T03:02:45.316Z,96680.31
2022-12-22T03:05:50.943Z,96662.91
2022-12-22T03:08:56.676Z,96663.44
2022-12-22T03:12:03.887Z,96662.63
2022-12-22T03:15:11.229Z,96659.47
2022-12-22T03:18:28.584Z,96647.97
2022-12-22T03:21:38.614Z,96650.19
2022-12-22T03:24:44.280Z,96646.72
2022-12-22T03:27:37.063Z,96633.91
2022-12-22T03:30:25.461Z,96622.41
2022-12-22T03:33:14.753Z,96619.50
2022-12-22T03:36:01.684Z,96624.47
2022-12-22T03:38:48.862Z,96614.56
2022-12-22T03:41:54.410Z,96611.94
2022-12-22T03:45:05.135Z,96611.09
2022-12-22T03:47:52.102Z,96608.31
2022-12-22T03:50:46.449Z,96599.09
2022-12-22T03:53:33.465Z,96603.22
2022-12-22T03:56:23.409Z,96599.47
2022-12-22T03:59:13.247Z,96601.13
2022-12-22T04:02:02.895Z,96595.06
2022-12-22T04:04:52.299Z,96594.91
2022-12-22T04:07:39.136Z,96598.22
2022-12-22T04:10:47.141Z,96605.75
2022-12-22T04:13:34.102Z,96591.16
2022-12-22T04:16:23.343Z,96591.44
2022-12-22T04:19:10.351Z,96609.06
2022-12-22T04:22:00.135Z,96591.97
2022-12-22T04:24:49.418Z,96593.63
2022-12-22T04:27:36.233Z,96599.28
2022-12-22T04:30:23.203Z,96591.16
2022-12-22T04:33:12.698Z,96589.06
2022-12-22T04:36:01.921Z,96581.47
2022-12-22T04:38:48.888Z,96575.41
2022-12-22T04:44:43.621Z,96568.06
2022-12-22T04:47:30.597Z,96575.47
2022-12-22T04:50:17.905Z,96570.38
2022-12-22T04:53:09.973Z,96562.50
2022-12-22T04:56:01.909Z,96562.34
2022-12-22T04:58:50.424Z,96551.53
2022-12-22T05:01:37.593Z,96549.06
2022-12-22T05:04:29.530Z,96554.19
2022-12-22T05:07:18.911Z,96550.91
2022-12-22T05:10:06.018Z,96548.16
2022-12-22T05:12:55.655Z,96542.91
2022-12-22T05:15:42.547Z,96531.72
2022-12-22T05:18:29.322Z,96540.28
2022-12-22T05:21:24.194Z,96524.47
2022-12-22T05:24:11.037Z,96532.88
2022-12-22T05:26:57.820Z,96533.53
2022-12-22T05:29:44.654Z,96518.22
2022-12-22T05:32:34.951Z,96535.56
2022-12-22T05:35:24.100Z,96527.00
2022-12-22T05:38:10.922Z,96524.00
2022-12-22T05:41:03.615Z,96530.44
2022-12-22T05:43:50.987Z,96518.81
2022-12-22T05:46:54.007Z,96506.28
2022-12-22T05:49:40.854Z,96504.19
2022-12-22T05:52:30.684Z,96516.06
2022-12-22T05:55:20.356Z,96499.31
2022-12-22T05:58:12.482Z,96487.31
2022-12-22T06:01:00.398Z,96494.41
2022-12-22T06:03:47.328Z,96504.63
2022-12-22T06:06:35.327Z,96507.53
2022-12-22T06:09:22.272Z,96506.25
2022-12-22T06:12:09.221Z,96508.88
2022-12-22T06:14:56.004Z,96502.81
2022-12-22T06:17:45.064Z,96496.25
2022-12-22T06:20:32.303Z,96508.56
2022-12-22T06:23:21.859Z,96518.13
2022-12-22T06:26:09.121Z,96530.28
2022-12-22T06:28:55.944Z,96517.78
2022-12-22T06:31:42.795Z,96512.22
2022-12-22T06:34:32.736Z,96517.34
2022-12-22T06:37:35.498Z,96518.31
2022-12-22T06:40:22.343Z,96517.97
2022-12-22T06:43:10.093Z,96529.63
2022-12-22T06:45:57.380Z,96525.22
2022-12-22T06:48:44.153Z,96528.69
2022-12-22T06:51:30.903Z,96525.38
2022-12-22T06:54:25.879Z,96516.84
2022-12-22T06:57:13.222Z,96530.94
2022-12-22T07:00:00.059Z,96528.31
2022-12-22T07:02:47.063Z,96524.72
2022-12-22T07:05:34.076Z,96512.53
2022-12-22T07:08:20.915Z,96516.84
2022-12-22T07:11:07.689Z,96506.31
2022-12-22T07:13:55.311Z,96518.63
2022-12-22T07:16:42.115Z,96510.75
2022-12-22T07:19:28.938Z,96514.22
2022-12-22T07:22:15.726Z,96512.22
2022-12-22T07:25:02.534Z,96514.22
2022-12-22T07:27:49.307Z,96511.41
2022-12-22T07:30:38.982Z,96511.59
2022-12-22T07:33:25.891Z,96516.66
2022-12-22T07:36:18.464Z,96513.22
2022-12-22T07:39:05.290Z,96504.53
2022-12-22T07:42:10.838Z,96500.91
2022-12-22T07:44:57.622Z,96500.09
2022-12-22T07:47:44.786Z,96489.56
2022-12-22T07:50:32.884Z,96492.22
2022-12-22T07:53:19.685Z,96482.69
2022-12-22T07:56:06.811Z,96488.59
2022-12-22T07:58:53.583Z,96482.34
2022-12-22T08:01:43.438Z,96476.97
2022-12-22T08:04:33.120Z,96470.72
2022-12-22T08:07:19.944Z,96461.03
2022-12-22T08:10:07.577Z,96465.31
2022-12-22T08:12:54.949Z,96458.09
2022-12-22T08:15:41.833Z,96463.22
2022-12-22T08:18:28.745Z,96468.28
2022-12-22T08:21:18.078Z,96463.72
2022-12-22T08:24:04.897Z,96475.88
2022-12-22T08:26:55.122Z,96488.19
2022-12-22T08:29:45.608Z,96482.94
2022-12-22T08:32:32.404Z,96481.94
2022-12-22T08:35:19.407Z,96482.63
2022-12-22T08:38:06.781Z,96478.19
2022-12-22T08:40:53.649Z,96474.75
2022-12-22T08:43:40.620Z,96470.31
2022-12-22T08:46:27.411Z,96475.56
2022-12-22T08:49:14.612Z,96459.63
2022-12-22T08:52:01.461Z,96482.16
2022-12-22T08:54:48.318Z,96486.41
2022-12-22T08:57:36.351Z,96475.78
2022-12-22T09:00:23.504Z,96462.28
2022-12-22T09:03:10.543Z,96477.09
2022-12-22T09:06:06.472Z,96477.75
2022-12-22T09:09:03.119Z,96469.88
2022-12-22T09:11:50.223Z,96462.81
2022-12-22T09:14:37.062Z,96461.66
2022-12-22T09:17:23.951Z,96461.66
2022-12-22T09:20:10.995Z,96457.09
2022-12-22T09:22:57.847Z,96460.38
2022-12-22T09:25:44.720Z,96448.72
2022-12-22T09:28:31.523Z,96466.13
2022-12-22T09:31:19.334Z,96470.41
2022-12-22T09:34:06.667Z,96461.56
2022-12-22T09:36:55.286Z,96460.41
2022-12-22T09:39:42.087Z,96456.00
2022-12-22T09:42:30.621Z,96445.63
2022-12-22T09:45:23.125Z,96441.84
2022-12-22T09:48:12.828Z,96446.13
2022-12-22T09:50:59.663Z,96438.09
2022-12-22T09:53:48.530Z,96438.59
2022-12-22T09:56:35.977Z,96428.72
2022-12-22T09:59:25.764Z,96422.16
2022-12-22T10:02:25.936Z,96418.41
2022-12-22T10:05:26.700Z,96420.53
2022-12-22T10:08:15.960Z,96420.72
2022-12-22T10:11:02.853Z,96432.56
2022-12-22T10:13:49.665Z,96421.72
2022-12-22T10:16:36.548Z,96423.06
2022-12-22T10:19:23.394Z,96425.69
2022-12-22T10:22:45.488Z,96414.53
2022-12-22T10:26:25.908Z,96411.25
2022-12-22T10:28:47.895Z,96396.28
2022-12-22T10:31:37.118Z,96408.44
2022-12-22T10:34:29.028Z,96407.97
2022-12-22T10:37:15.874Z,96410.44
2022-12-22T10:40:20.085Z,96407.78
2022-12-22T10:43:06.879Z,96404.84
2022-12-22T10:45:56.004Z,96402.88
2022-12-22T10:48:42.874Z,96404.00
2022-12-22T10:51:29.782Z,96405.50
2022-12-22T10:54:30.804Z,96397.28
2022-12-22T10:57:17.472Z,96398.75
2022-12-22T11:00:28.971Z,96397.75
2022-12-22T11:03:29.384Z,96393.97
2022-12-22T11:06:18.829Z,96394.81
2022-12-22T11:09:32.023Z,96388.53
2022-12-22T11:13:02.452Z,96387.41
2022-12-22T11:15:56.305Z,96379.16
2022-12-22T11:18:52.474Z,96377.84
2022-12-22T11:22:01.994Z,96372.22
2022-12-22T11:25:00.863Z,96367.59
2022-12-22T11:28:14.565Z,96357.75
2022-12-22T11:31:20.169Z,96355.59
2022-12-22T11:34:31.311Z,96359.53
2022-12-22T11:37:48.547Z,96372.50
2022-12-22T11:40:42.299Z,96360.66
2022-12-22T11:43:41.484Z,96356.03
2022-12-22T11:46:34.954Z,96347.81
2022-12-22T11:49:55.829Z,96344.16
2022-12-22T11:52:58.640Z,96340.38
2022-12-22T11:56:01.085Z,96340.06
2022-12-22T11:59:10.597Z,96348.59
2022-12-22T12:02:00.305Z,96351.88
2022-12-22T12:05:09.212Z,96355.16
2022-12-22T12:08:15.484Z,96349.56
2022-12-22T12:11:34.154Z,96338.66
2022-12-22T12:14:29.538Z,96328.75
2022-12-22T12:17:16.236Z,96345.06
2022-12-22T12:20:20.866Z,96328.91
2022-12-22T12:23:14.347Z,96330.56
2022-12-22T12:26:31.826Z,96338.09
2022-12-22T12:29:32.756Z,96336.13
2022-12-22T12:32:37.430Z,96334.97
2022-12-22T12:35:33.490Z,96333.78
2022-12-22T12:41:59.056Z,96338.38
2022-12-22T12:44:46.293Z,96335.41
2022-12-22T12:47:34.528Z,96329.94
2022-12-22T12:50:32.863Z,96332.44
2022-12-22T12:53:21.365Z,96339.34
2022-12-22T12:56:08.874Z,96338.81
2022-12-22T12:58:57.964Z,96337.00
2022-12-22T13:01:55.182Z,96334.19
2022-12-22T13:05:05.731Z,96346.03
2022-12-22T13:08:07.780Z,96344.88
2022-12-22T13:10:54.430Z,96341.22
2022-12-22T13:14:14.807Z,96351.59
2022-12-22T13:17:47.274Z,96346.38
2022-12-22T13:20:38.729Z,96340.34
2022-12-22T13:23:40.963Z,96344.09
2022-12-22T13:26:39.700Z,96345.97
2022-12-22T13:29:29.860Z,96338.63
2022-12-22T13:32:36.211Z,96351.59
2022-12-22T13:35:36.450Z,96357.41
2022-12-22T13:38:37.497Z,96340.41
2022-12-22T13:41:27.651Z,96359.09
2022-12-22T13:44:20.398Z,96352.81
2022-12-22T13:47:12.927Z,96344.16
2022-12-22T13:50:08.837Z,96338.53
2022-12-22T13:52:57.435Z,96349.56
2022-12-22T13:55:55.659Z,96360.84
2022-12-22T13:58:46.890Z,96357.19
2022-12-22T14:01:34.600Z,96338.88
2022-12-22T14:04:23.281Z,96359.78
2022-12-22T14:07:19.640Z,96358.56
2022-12-22T14:10:07.516Z,96351.09
2022-12-22T14:12:54.752Z,96356.22
2022-12-22T14:15:42.657Z,96359.31
2022-12-22T14:18:31.721Z,96360.75
2022-12-22T14:21:18.874Z,96366.03
2022-12-22T14:24:06.154Z,96369.34
2022-12-22T14:26:53.535Z,96366.50
2022-12-22T14:29:44.903Z,96363.84
2022-12-22T14:32:40.465Z,96375.09
2022-12-22T14:35:33.798Z,96372.44
2022-12-22T14:38:23.779Z,96384.47
2022-12-22T14:41:51.601Z,96390.38
2022-12-22T14:44:50.437Z,96389.78
2022-12-22T14:47:37.722Z,96399.78
2022-12-22T14:50:31.396Z,96403.91
2022-12-22T14:53:34.349Z,96407.16
2022-12-22T14:56:28.765Z,96390.38
2022-12-22T14:59:29.325Z,96394.66
2022-12-22T15:02:24.565Z,96404.06
2022-12-22T15:05:25.543Z,96411.91
2022-12-22T15:08:38.712Z,96419.47
2022-12-22T15:11:33.643Z,96425.78
2022-12-22T15:14:26.185Z,96416.72
2022-12-22T15:17:23.860Z,96423.13
2022-12-22T15:20:19.671Z,96421.50
2022-12-22T15:23:20.851Z,96431.53
2022-12-22T15:26:09.736Z,96433.16
2022-12-22T15:28:59.013Z,96434.63
2022-12-22T15:31:45.875Z,96443.75
2022-12-22T15:34:32.651Z,96429.25
2022-12-22T15:37:19.519Z,96448.66
2022-12-22T15:40:14.430Z,96448.31
2022-12-22T15:43:03.707Z,96469.28
2022-12-22T15:45:50.486Z,96462.16
2022-12-22T15:48:38.807Z,96471.31
2022-12-22T15:51:31.033Z,96467.19
2022-12-22T15:54:20.546Z,96464.63
2022-12-22T15:57:11.051Z,96482.34
2022-12-22T15:59:57.909Z,96471.56
2022-12-22T16:02:44.924Z,96469.13
2022-12-22T16:05:35.003Z,96486.25
2022-12-22T16:08:34.143Z,96488.09
2022-12-22T16:11:20.846Z,96490.53
2022-12-22T16:14:11.160Z,96492.56
2022-12-22T16:17:00.941Z,96493.84
2022-12-22T16:19:47.762Z,96494.81
2022-12-22T16:22:36.156Z,96487.06
2022-12-22T16:25:27.731Z,96505.03
2022-12-22T16:28:20.394Z,96503.06
2022-12-22T16:31:16.540Z,96509.97
2022-12-22T16:34:03.359Z,96509.81
2022-12-22T16:36:53.243Z,96511.59
2022-12-22T16:39:49.090Z,96511.00
2022-12-22T16:45:45.217Z,96533.25
2022-12-22T16:48:41.644Z,96535.88
2022-12-22T16:51:36.802Z,96535.88
2022-12-22T16:54:34.929Z,96536.91
2022-12-22T16:57:21.880Z,96534.59
2022-12-22T17:00:23.816Z,96540.91
2022-12-22T17:03:13.557Z,96548.66
2022-12-22T17:06:03.290Z,96543.38
2022-12-22T17:08:50.558Z,96550.31
2022-12-22T17:11:55.579Z,96555.22
2022-12-22T17:14:50.153Z,96558.72
2022-12-22T17:17:42.562Z,96561.72
2022-12-22T17:20:37.822Z,96561.81
2022-12-22T17:23:35.193Z,96559.69
2022-12-22T17:26:24.695Z,96568.28
2022-12-22T17:29:27.871Z,96561.63
2022-12-22T17:32:22.383Z,96562.81
2022-12-22T17:35:25.698Z,96563.47
2022-12-22T17:38:29.639Z,96567.94
2022-12-22T17:41:17.388Z,96571.88
2022-12-22T17:44:04.283Z,96561.44
2022-12-22T17:46:54.643Z,96563.09
2022-12-22T17:50:00.078Z,96571.66
2022-12-22T17:52:57.279Z,96549.22
2022-12-22T17:59:08.688Z,96551.88
2022-12-22T18:02:09.060Z,96545.41
2022-12-22T18:04:56.293Z,96549.06
2022-12-22T18:07:46.383Z,96550.03
2022-12-22T18:10:39.909Z,96555.78
2022-12-22T18:13:43.733Z,96548.22
2022-12-22T18:16:33.167Z,96547.84
2022-12-22T18:19:29.427Z,96549.88
2022-12-22T18:22:25.892Z,96547.50
2022-12-22T18:25:31.195Z,96549.69
2022-12-22T18:28:23.382Z,96563.00
2022-12-22T18:31:10.851Z,96554.41
2022-12-22T18:34:00.662Z,96545.41
2022-12-22T18:36:55.345Z,96556.44
2022-12-22T18:39:44.951Z,96552.16
2022-12-22T18:42:33.820Z,96554.81
2022-12-22T18:45:30.165Z,96562.19
2022-12-22T18:48:17.238Z,96564.47
2022-12-22T18:51:18.300Z,96549.97
2022-12-22T18:57:59.745Z,96555.06
2022-12-22T19:00:56.023Z,96549.97
2022-12-22T19:03:45.749Z,96548.97
2022-12-22T19:06:38.991Z,96553.69
2022-12-22T19:09:49.238Z,96547.78
2022-12-22T19:12:43.236Z,96547.38
2022-12-22T19:16:08.210Z,96545.28
2022-12-22T19:19:06.925Z,96541.47
2022-12-22T19:22:01.126Z,96531.44
2022-12-22T19:24:51.653Z,96528.59
2022-12-22T19:27:43.447Z,96533.69
2022-12-22T19:30:34.544Z,96549.88
2022-12-22T19:36:52.235Z,96543.31
2022-12-22T19:39:52.105Z,96539.19
2022-12-22T19:42:45.215Z,96546.03
2022-12-22T19:45:42.218Z,96527.22
2022-12-22T19:48:31.678Z,96536.28
2022-12-22T19:51:23.430Z,96536.28
2022-12-22T19:54:20.492Z,96524.56
2022-12-22T19:57:43.839Z,96519.72
2022-12-22T20:01:05.327Z,96510.88
2022-12-22T20:04:18.433Z,96511.69
2022-12-22T20:07:43.809Z,96507.41
2022-12-22T20:11:29.333Z,96513.81
2022-12-22T20:14:30.941Z,96509.25
2022-12-22T20:17:36.352Z,96506.03
2022-12-22T20:20:57.379Z,96511.63
2022-12-22T20:24:00.876Z,96493.81
2022-12-22T20:26:53.754Z,96473.00
2022-12-22T20:29:52.277Z,96483.84
2022-12-22T20:32:40.809Z,96471.63
2022-12-22T20:35:27.943Z,96477.13
2022-12-22T20:38:27.482Z,96477.94
2022-12-22T20:41:17.443Z,96475.09
2022-12-22T20:44:18.070Z,96472.19
2022-12-22T20:47:28.856Z,96468.53
2022-12-22T20:50:19.506Z,96469.19
2022-12-22T20:53:06.387Z,96471.00
2022-12-22T20:55:55.899Z,96463.59
2022-12-22T20:58:43.057Z,96474.28
2022-12-22T21:01:35.089Z,96468.38
2022-12-22T21:04:25.628Z,96466.91
2022-12-22T21:07:12.564Z,96465.06
2022-12-22T21:09:59.448Z,96456.66
2022-12-22T21:13:02.982Z,96464.25
2022-12-22T21:15:50.985Z,96468.38
2022-12-22T21:18:38.140Z,96459.13
2022-12-22T21:21:27.809Z,96462.22
2022-12-22T21:24:14.842Z,96447.91
2022-12-22T21:27:03.967Z,96451.84
2022-12-22T21:29:57.302Z,96450.38
2022-12-22T21:32:44.644Z,96437.69
2022-12-22T21:35:35.543Z,96442.63
2022-12-22T21:38:25.242Z,96441.00
2022-12-22T21:41:12.202Z,96432.84
2022-12-22T21:44:01.973Z,96434.69
2022-12-22T21:46:49.028Z,96426.28
2022-12-22T21:49:36.090Z,96435.31
2022-12-22T21:52:22.963Z,96426.28
2022-12-22T21:55:12.596Z,96428.13
2022-12-22T21:57:59.800Z,96423.19
2022-12-22T22:00:48.718Z,96405.03
2022-12-22T22:03:42.214Z,96413.22
2022-12-22T22:06:29.164Z,96416.31
2022-12-22T22:09:18.817Z,96405.47
2022-12-22T22:12:28.236Z,96411.59
2022-12-22T22:15:15.681Z,96406.13
2022-12-22T22:18:07.538Z,96396.91
2022-12-22T22:20:54.658Z,96395.47
2022-12-22T22:23:41.919Z,96402.63
2022-12-22T22:26:28.912Z,96399.28
2022-12-22T22:29:15.987Z,96404.03
2022-12-22T22:32:02.807Z,96406.66
2022-12-22T22:34:49.710Z,96394.19
2022-12-22T22:37:42.625Z,96396.66
2022-12-22T22:40:29.820Z,96383.63
2022-12-22T22:43:16.638Z,96377.31
2022-12-22T22:46:06.476Z,96382.22
2022-12-22T22:48:53.346Z,96374.28
2022-12-22T22:51:40.433Z,96369.81
2022-12-22T22:54:27.579Z,96362.03
2022-12-22T22:57:14.457Z,96360.41
2022-12-22T23:00:01.552Z,96351.47
2022-12-22T23:02:48.508Z,96349.59
2022-12-22T23:05:36.240Z,96365.09
2022-12-22T23:08:23.093Z,96346.56
2022-12-22T23:11:16.237Z,96333.69
2022-12-22T23:14:03.154Z,96335.53
2022-12-22T23:16:51.632Z,96333.69
2022-12-22T23:19:40.253Z,96341.44
2022-12-22T23:22:27.105Z,96318.56
2022-12-22T23:25:13.962Z,96326.78
2022-12-22T23:28:00.897Z,96320.63
2022-12-22T23:30:50.521Z,96320.28
2022-12-22T23:33:37.440Z,96318.84
2022-12-22T23:36:24.631Z,96298.22
2022-12-22T23:39:11.777Z,96310.91
2022-12-22T23:41:58.764Z,96299.88
2022-12-22T23:45:06.638Z,96289.66
2022-12-22T23:47:53.512Z,96300.69
2022-12-22T23:50:47.129Z,96293.38
2022-12-22T23:53:34.503Z,96286.81
2022-12-22T23:56:21.683Z,96286.19
2022-12-22T23:59:11.488Z,96287.25
